Time;durP1;ratioP1;P1;durP2;ratioP2;P2;SDS_P1;SDS_P2;PMS_P1;PMS_P2;Temp;Humidity;BMP_temperature;BMP_pressure;BME280_temperature;BME280_humidity;BME280_pressure;Samples;Min_cycle;Max_cycle;Signal;HPM_P1;HPM_P2
2021/01/01 00:01:48;;;;;;;6.90;1.10;;;21.10;99.90;;;;;;5052555;28;20294;-63
2021/01/01 00:04:16;;;;;;;4.57;1.40;;;21.20;99.90;;;;;;5020063;28;20055;-63
2021/01/01 00:06:49;;;;;;;9.50;1.25;;;21.40;99.90;;;;;;5052228;28;20076;-63
2021/01/01 00:09:19;;;;;;;10.60;1.00;;;21.50;99.90;;;;;;5052289;28;20460;-64
2021/01/01 00:11:51;;;;;;;5.57;0.90;;;21.50;99.90;;;;;;5052234;28;20029;-63
2021/01/01 00:14:19;;;;;;;7.38;1.20;;;21.30;99.90;;;;;;5052250;28;20086;-63
2021/01/01 00:16:47;;;;;;;6.85;0.90;;;21.30;99.90;;;;;;5052122;28;20214;-63
2021/01/01 00:19:16;;;;;;;6.78;1.00;;;21.30;99.90;;;;;;5052163;28;20028;-63
2021/01/01 00:21:44;;;;;;;10.27;1.52;;;21.30;99.90;;;;;;5052153;28;20032;-63
2021/01/01 00:24:12;;;;;;;8.10;0.90;;;21.30;99.90;;;;;;5052067;28;20032;-63
2021/01/01 00:26:40;;;;;;;8.65;1.05;;;21.30;99.90;;;;;;5053040;28;20048;-63
2021/01/01 00:29:08;;;;;;;10.25;1.75;;;21.40;99.90;;;;;;5074119;28;20039;-63
2021/01/01 00:31:37;;;;;;;6.43;0.77;;;21.40;99.90;;;;;;5073927;28;20021;-63
2021/01/01 00:34:05;;;;;;;7.60;0.95;;;21.50;99.90;;;;;;5074216;28;20020;-63
2021/01/01 00:36:33;;;;;;;7.50;1.55;;;21.50;99.90;;;;;;5073867;28;20020;-63
2021/01/01 00:39:01;;;;;;;10.98;1.10;;;21.50;99.90;;;;;;5073720;28;20059;-63
2021/01/01 00:41:34;;;;;;;9.15;1.67;;;21.50;99.90;;;;;;5073858;28;20070;-63
2021/01/01 00:44:02;;;;;;;7.85;1.45;;;21.50;99.90;;;;;;5072878;28;20081;-63
2021/01/01 00:46:33;;;;;;;8.35;1.27;;;21.50;99.90;;;;;;5073722;28;20388;-63
2021/01/01 00:49:01;;;;;;;4.65;0.82;;;21.50;99.90;;;;;;5073648;28;20044;-63
2021/01/01 00:51:34;;;;;;;8.52;1.20;;;21.30;99.90;;;;;;5073830;28;20044;-63
2021/01/01 00:54:03;;;;;;;6.43;1.13;;;21.30;99.90;;;;;;5071821;28;20051;-63
2021/01/01 00:56:31;;;;;;;6.97;1.30;;;21.20;99.90;;;;;;5073830;28;20016;-63
2021/01/01 00:58:59;;;;;;;6.78;1.92;;;21.20;99.90;;;;;;5073735;28;20028;-63
2021/01/01 01:01:28;;;;;;;8.57;1.20;;;21.30;99.90;;;;;;5073436;28;20099;-64
2021/01/01 01:03:57;;;;;;;10.43;1.90;;;21.30;99.90;;;;;;5073489;28;20365;-63
2021/01/01 01:06:26;;;;;;;9.57;1.50;;;21.30;99.90;;;;;;5073701;28;20456;-63
2021/01/01 01:08:55;;;;;;;8.90;1.23;;;21.20;99.90;;;;;;5073564;28;20016;-63
2021/01/01 01:11:27;;;;;;;6.65;1.00;;;21.10;99.90;;;;;;5073647;28;20056;-63
2021/01/01 01:13:56;;;;;;;9.80;1.20;;;21.10;99.90;;;;;;5073572;28;20021;-64
2021/01/01 01:16:26;;;;;;;8.63;1.60;;;21.10;99.90;;;;;;5073249;28;20016;-64
2021/01/01 01:18:55;;;;;;;5.85;1.10;;;21.10;99.90;;;;;;5073539;28;20020;-64
2021/01/01 01:21:24;;;;;;;10.20;2.05;;;21.10;99.90;;;;;;5073476;28;20031;-63
2021/01/01 01:23:53;;;;;;;8.18;1.50;;;21.20;99.90;;;;;;5073257;28;20020;-63
2021/01/01 01:26:21;;;;;;;5.38;1.25;;;21.30;99.90;;;;;;5073365;28;20350;-64
2021/01/01 01:28:49;;;;;;;9.50;1.20;;;21.40;99.90;;;;;;5073205;28;20020;-63
2021/01/01 01:31:17;;;;;;;8.40;1.23;;;21.50;99.90;;;;;;5073049;28;20037;-64
2021/01/01 01:33:46;;;;;;;6.03;0.93;;;21.60;99.90;;;;;;5073399;28;20027;-64
2021/01/01 01:36:14;;;;;;;4.57;0.73;;;21.50;99.90;;;;;;5073359;28;20066;-63
2021/01/01 01:38:42;;;;;;;9.63;1.70;;;21.60;99.90;;;;;;5071951;28;20029;-63
2021/01/01 01:41:10;;;;;;;9.43;1.50;;;21.60;99.90;;;;;;5073243;28;20028;-63
2021/01/01 01:43:38;;;;;;;8.18;1.27;;;21.70;99.90;;;;;;5073297;28;20369;-63
2021/01/01 01:46:06;;;;;;;6.88;0.95;;;21.60;99.90;;;;;;5071829;28;20031;-63
2021/01/01 01:48:38;;;;;;;6.25;1.20;;;21.60;99.90;;;;;;5071607;28;20032;-63
2021/01/01 01:51:10;;;;;;;9.98;1.50;;;21.50;99.90;;;;;;5021527;28;20041;-62
2021/01/01 01:53:48;;;;;;;6.65;1.40;;;21.60;99.90;;;;;;5073168;28;20388;-62
2021/01/01 01:56:21;;;;;;;7.55;2.00;;;21.60;99.90;;;;;;5076757;28;20051;-63
2021/01/01 01:58:49;;;;;;;6.18;1.70;;;21.60;99.90;;;;;;5076997;28;20028;-63
2021/01/01 02:01:17;;;;;;;9.05;3.35;;;21.70;99.90;;;;;;5077198;28;20089;-62
2021/01/01 02:03:45;;;;;;;7.30;2.30;;;21.80;99.90;;;;;;5077136;28;20500;-63
2021/01/01 02:06:14;;;;;;;9.10;8.30;;;21.80;99.90;;;;;;5076737;28;20033;-63
2021/01/01 02:08:42;;;;;;;9.32;8.65;;;21.90;99.90;;;;;;5076721;28;20025;-63
2021/01/01 02:11:11;;;;;;;8.60;7.93;;;22.00;99.90;;;;;;5076971;28;20035;-65
2021/01/01 02:13:39;;;;;;;9.88;8.85;;;22.00;99.90;;;;;;5058583;28;20043;-62
2021/01/01 02:16:08;;;;;;;9.90;9.10;;;21.80;99.90;;;;;;5076529;28;20016;-62
2021/01/01 02:18:42;;;;;;;9.48;8.32;;;21.80;99.90;;;;;;5076864;28;20108;-62
2021/01/01 02:21:15;;;;;;;12.55;9.30;;;21.70;99.90;;;;;;5076524;28;20043;-62
2021/01/01 02:23:45;;;;;;;9.07;8.30;;;21.70;99.90;;;;;;5076453;28;20028;-62
2021/01/01 02:26:14;;;;;;;9.30;8.40;;;21.50;99.90;;;;;;5076426;28;20495;-62
2021/01/01 02:28:42;;;;;;;11.80;9.80;;;21.50;99.90;;;;;;5076598;28;20032;-62
2021/01/01 02:31:11;;;;;;;9.75;8.52;;;21.40;99.90;;;;;;5058089;28;20040;-63
2021/01/01 02:33:39;;;;;;;9.95;9.13;;;21.60;99.90;;;;;;5076474;28;20405;-62
2021/01/01 02:36:08;;;;;;;9.45;8.45;;;21.60;99.90;;;;;;5076206;28;20047;-63
2021/01/01 02:38:39;;;;;;;11.90;9.35;;;21.70;99.90;;;;;;5074684;28;20048;-63
2021/01/01 02:41:08;;;;;;;9.35;8.55;;;21.80;99.90;;;;;;5074056;28;20178;-63
2021/01/01 02:43:36;;;;;;;11.07;8.60;;;21.70;99.90;;;;;;5008375;28;20068;-63
2021/01/01 02:46:04;;;;;;;9.85;9.05;;;21.70;99.90;;;;;;5076123;28;20047;-64
2021/01/01 02:48:32;;;;;;;9.52;8.63;;;21.70;99.90;;;;;;5076313;28;20032;-64
2021/01/01 02:51:00;;;;;;;9.02;8.15;;;21.70;99.90;;;;;;5074625;28;20393;-63
2021/01/01 02:53:28;;;;;;;8.52;7.20;;;21.60;99.90;;;;;;5076215;28;20021;-63
2021/01/01 02:55:57;;;;;;;9.40;8.50;;;21.50;99.90;;;;;;5076139;28;20035;-63
2021/01/01 02:58:25;;;;;;;10.75;8.45;;;21.50;99.90;;;;;;5076116;28;20375;-64
2021/01/01 03:00:53;;;;;;;12.85;9.50;;;21.40;99.90;;;;;;5074965;28;20021;-63
2021/01/01 03:03:21;;;;;;;10.00;9.20;;;21.30;99.90;;;;;;5075963;28;20075;-63
2021/01/01 03:05:50;;;;;;;9.52;8.50;;;21.20;99.90;;;;;;5075604;28;20055;-62
2021/01/01 03:08:18;;;;;;;9.27;8.25;;;21.10;99.90;;;;;;5075345;28;20024;-64
2021/01/01 03:10:46;;;;;;;8.88;7.88;;;21.00;99.90;;;;;;5074665;28;20036;-63
2021/01/01 03:13:14;;;;;;;8.50;7.70;;;21.00;99.90;;;;;;5075841;28;20043;-63
2021/01/01 03:15:42;;;;;;;8.77;7.95;;;20.90;99.90;;;;;;5074343;28;20024;-63
2021/01/01 03:18:10;;;;;;;8.82;8.15;;;20.80;99.90;;;;;;5075530;28;20025;-63
2021/01/01 03:20:38;;;;;;;10.45;8.27;;;20.80;99.90;;;;;;5075465;28;20507;-63
2021/01/01 03:23:06;;;;;;;9.50;7.47;;;20.80;99.90;;;;;;5075687;28;20024;-63
2021/01/01 03:25:35;;;;;;;7.88;7.38;;;20.80;99.90;;;;;;5075359;28;20063;-63
2021/01/01 03:28:03;;;;;;;8.40;7.55;;;20.90;99.90;;;;;;5075589;28;20028;-63
2021/01/01 03:30:32;;;;;;;9.00;8.10;;;20.90;99.90;;;;;;5075237;28;20021;-63
2021/01/01 03:33:00;;;;;;;8.68;7.80;;;20.90;99.90;;;;;;5075280;28;20464;-63
2021/01/01 03:35:28;;;;;;;9.65;7.95;;;21.00;99.90;;;;;;5075024;28;20028;-63
2021/01/01 03:37:56;;;;;;;8.75;7.93;;;20.90;99.90;;;;;;5073709;28;20070;-63
2021/01/01 03:40:24;;;;;;;9.00;8.10;;;21.00;99.90;;;;;;5075188;28;20028;-63
2021/01/01 03:42:52;;;;;;;10.20;8.15;;;20.80;99.90;;;;;;5075200;28;20028;-63
2021/01/01 03:45:20;;;;;;;9.02;8.10;;;20.80;99.90;;;;;;5074782;28;20094;-63
2021/01/01 03:47:50;;;;;;;8.65;7.80;;;20.90;99.90;;;;;;5074788;28;20048;-63
2021/01/01 03:50:18;;;;;;;10.55;7.93;;;20.90;99.90;;;;;;5074550;28;20131;-63
2021/01/01 03:52:46;;;;;;;7.63;6.85;;;20.90;99.90;;;;;;5074691;28;20103;-63
2021/01/01 03:55:14;;;;;;;7.72;7.00;;;20.90;99.90;;;;;;5074919;28;20078;-63
2021/01/01 03:57:42;;;;;;;9.68;7.50;;;20.80;99.90;;;;;;5074889;28;20516;-63
2021/01/01 04:00:11;;;;;;;8.82;7.55;;;20.60;99.90;;;;;;5074575;28;20032;-64
2021/01/01 04:02:40;;;;;;;8.50;7.53;;;20.40;99.90;;;;;;5074736;28;20052;-63
2021/01/01 04:05:09;;;;;;;8.05;7.15;;;20.20;99.90;;;;;;5074790;28;20033;-63
2021/01/01 04:07:37;;;;;;;8.95;7.60;;;20.10;99.90;;;;;;5074503;28;20055;-63
2021/01/01 04:10:05;;;;;;;10.10;7.45;;;19.90;99.90;;;;;;5074401;28;20036;-63
2021/01/01 04:12:33;;;;;;;9.52;8.60;;;19.90;99.90;;;;;;5074363;28;20050;-63
2021/01/01 04:15:01;;;;;;;9.63;8.73;;;19.80;99.90;;;;;;5074370;28;20110;-63
2021/01/01 04:17:29;;;;;;;10.00;8.40;;;19.70;99.90;;;;;;5074240;28;20047;-63
2021/01/01 04:19:57;;;;;;;9.57;8.50;;;19.70;99.90;;;;;;5074568;28;20029;-64
2021/01/01 04:22:26;;;;;;;11.15;9.25;;;19.60;99.90;;;;;;5074152;28;20024;-63
2021/01/01 04:24:54;;;;;;;10.52;8.90;;;19.50;99.90;;;;;;5073888;28;20028;-63
2021/01/01 04:27:22;;;;;;;9.80;8.80;;;19.40;99.90;;;;;;5074280;28;20104;-63
2021/01/01 04:29:53;;;;;;;10.00;9.00;;;19.30;99.90;;;;;;5074314;28;20029;-63
2021/01/01 04:32:21;;;;;;;9.98;8.95;;;19.20;99.90;;;;;;5073931;28;20023;-64
2021/01/01 04:34:50;;;;;;;12.02;9.00;;;19.20;99.90;;;;;;5073987;28;20445;-64
2021/01/01 04:37:18;;;;;;;11.68;8.30;;;19.10;99.90;;;;;;5074111;28;20016;-63
2021/01/01 04:39:46;;;;;;;11.13;8.68;;;19.10;99.90;;;;;;5074125;28;20134;-63
2021/01/01 04:42:15;;;;;;;10.32;8.30;;;19.10;99.90;;;;;;5055262;28;20116;-63
2021/01/01 04:44:43;;;;;;;9.45;7.93;;;19.00;99.90;;;;;;5073716;28;20035;-64
2021/01/01 04:47:14;;;;;;;10.75;8.18;;;19.00;99.90;;;;;;5073647;28;20426;-63
2021/01/01 04:49:43;;;;;;;10.60;8.43;;;19.00;99.90;;;;;;5073563;28;20041;-63
2021/01/01 04:52:14;;;;;;;8.57;7.88;;;19.00;99.90;;;;;;5072513;28;20028;-63
2021/01/01 04:54:44;;;;;;;;;;;19.10;99.90;;;;;;5074190;28;20380;-63
2021/01/01 04:57:13;;;;;;;9.83;8.50;;;19.10;99.90;;;;;;5073766;28;19904;-63
2021/01/01 04:59:41;;;;;;;15.13;8.68;;;19.00;99.90;;;;;;5073356;28;20024;-63
2021/01/01 05:02:09;;;;;;;9.75;8.40;;;19.10;99.90;;;;;;5073643;28;20155;-63
2021/01/01 05:04:37;;;;;;;8.98;8.07;;;19.10;99.90;;;;;;5055262;28;20078;-63
2021/01/01 05:07:05;;;;;;;10.90;8.48;;;19.20;99.90;;;;;;5073415;28;20031;-63
2021/01/01 05:09:33;;;;;;;10.77;9.35;;;19.20;99.90;;;;;;5073554;28;20056;-63
2021/01/01 05:12:09;;;;;;;9.48;8.73;;;19.20;99.90;;;;;;5073558;28;20404;-63
2021/01/01 05:14:38;;;;;;;11.60;8.70;;;19.30;99.90;;;;;;5073325;28;20028;-62
2021/01/01 05:17:07;;;;;;;9.88;8.98;;;19.40;99.90;;;;;;5072231;28;20074;-63
2021/01/01 05:19:41;;;;;;;9.90;8.90;;;19.40;99.90;;;;;;5073255;28;20025;-63
2021/01/01 05:22:11;;;;;;;9.13;8.20;;;19.40;99.90;;;;;;5073238;28;20028;-63
2021/01/01 05:24:40;;;;;;;;;;;19.50;99.90;;;;;;5071966;28;20045;-64
2021/01/01 05:27:17;;;;;;;10.77;9.25;;;19.50;99.90;;;;;;5073154;28;19911;-63
2021/01/01 05:29:55;;;;;;;13.52;8.70;;;19.50;99.90;;;;;;5072693;28;20032;-64
2021/01/01 05:32:28;;;;;;;9.52;8.43;;;19.60;99.90;;;;;;5073268;28;20380;-65
2021/01/01 05:35:00;;;;;;;9.80;8.27;;;19.50;99.90;;;;;;5073217;28;20465;-63
2021/01/01 05:37:31;;;;;;;10.82;8.68;;;19.60;99.90;;;;;;5073226;28;20029;-63
2021/01/01 05:40:18;;;;;;;9.23;8.20;;;19.70;99.90;;;;;;5073222;28;20028;-64
2021/01/01 05:42:47;;;;;;;12.75;9.30;;;19.70;99.90;;;;;;5050935;28;20041;-63
2021/01/01 05:45:17;;;;;;;10.48;8.43;;;19.80;99.90;;;;;;5051064;28;20052;-63
2021/01/01 05:48:05;;;;;;;13.52;8.20;;;19.80;99.90;;;;;;5051027;28;20037;-63
2021/01/01 05:50:35;;;;;;;7.85;7.18;;;19.70;99.90;;;;;;5030643;28;20115;-62
2021/01/01 05:53:14;;;;;;;9.43;8.35;;;19.70;99.90;;;;;;5030918;28;20386;-63
2021/01/01 05:55:43;;;;;;;12.18;7.80;;;19.70;99.90;;;;;;5030848;28;20037;-63
2021/01/01 05:58:31;;;;;;;8.48;7.78;;;19.70;99.90;;;;;;5014654;28;20034;-63
2021/01/01 06:00:59;;;;;;;9.10;7.95;;;19.70;99.90;;;;;;5011056;28;20060;-63
2021/01/01 06:03:33;;;;;;;8.65;7.82;;;19.70;99.90;;;;;;5011050;28;20117;-63
2021/01/01 06:06:06;;;;;;;10.25;8.20;;;19.70;99.90;;;;;;5011080;28;20030;-63
2021/01/01 06:08:35;;;;;;;9.25;7.53;;;19.60;99.90;;;;;;5011024;28;20033;-63
2021/01/01 06:11:05;;;;;;;9.57;7.97;;;19.70;99.90;;;;;;5010922;28;20034;-64
2021/01/01 06:13:36;;;;;;;9.95;7.88;;;19.70;99.90;;;;;;5019655;28;20544;-63
2021/01/01 06:16:09;;;;;;;8.38;7.43;;;19.70;99.90;;;;;;5014240;28;20529;-64
2021/01/01 06:18:41;;;;;;;11.60;8.63;;;19.70;99.90;;;;;;5030734;28;20021;-64
2021/01/01 06:21:09;;;;;;;9.88;7.90;;;19.80;99.90;;;;;;5038143;28;20067;-64
2021/01/01 06:23:42;;;;;;;8.52;7.72;;;19.80;99.90;;;;;;5050561;28;20477;-63
2021/01/01 06:26:11;;;;;;;10.05;7.80;;;19.80;99.90;;;;;;5050587;28;20061;-63
2021/01/01 06:28:44;;;;;;;8.20;7.60;;;19.80;99.90;;;;;;5017957;28;20075;-63
2021/01/01 06:31:15;;;;;;;8.95;7.90;;;19.90;99.90;;;;;;5054941;28;20033;-63
2021/01/01 06:33:46;;;;;;;8.68;7.97;;;19.90;99.90;;;;;;5072547;28;20118;-63
2021/01/01 06:36:37;;;;;;;9.05;8.35;;;19.90;99.90;;;;;;5072563;28;20021;-63
2021/01/01 06:39:06;;;;;;;8.65;8.00;;;19.90;99.90;;;;;;5072600;28;20529;-64
2021/01/01 06:41:53;;;;;;;8.77;7.90;;;19.90;99.90;;;;;;5072811;28;20028;-63
2021/01/01 06:44:41;;;;;;;8.93;8.07;;;19.80;99.90;;;;;;5053850;28;20099;-63
2021/01/01 06:47:30;;;;;;;7.63;7.07;;;19.80;99.90;;;;;;5033938;28;20537;-63
2021/01/01 06:49:58;;;;;;;8.30;7.20;;;19.80;99.90;;;;;;5033601;28;20374;-63
2021/01/01 06:52:26;;;;;;;8.70;7.32;;;19.80;99.90;;;;;;5017152;28;20033;-63
2021/01/01 06:55:02;;;;;;;8.25;7.30;;;19.80;99.90;;;;;;5017012;28;20134;-63
2021/01/01 06:57:31;;;;;;;9.35;7.80;;;19.80;99.90;;;;;;5033755;28;20616;-63
2021/01/01 07:00:00;;;;;;;9.40;7.63;;;19.80;99.90;;;;;;5033808;28;20473;-63
2021/01/01 07:02:31;;;;;;;11.10;7.82;;;19.80;99.90;;;;;;5033501;28;20040;-63
2021/01/01 07:04:59;;;;;;;8.93;7.30;;;19.70;99.90;;;;;;5033593;28;20045;-63
2021/01/01 07:07:46;;;;;;;8.07;7.30;;;19.70;99.90;;;;;;5033475;28;20060;-63
2021/01/01 07:10:34;;;;;;;8.40;7.70;;;19.60;99.90;;;;;;4997312;28;20133;-63
2021/01/01 07:13:21;;;;;;;9.02;7.90;;;19.60;99.90;;;;;;4974660;28;20027;-63
2021/01/01 07:15:50;;;;;;;8.65;7.80;;;19.60;99.90;;;;;;4955278;29;20042;-63
2021/01/01 07:18:21;;;;;;;7.70;7.00;;;19.50;99.90;;;;;;4955139;29;20039;-63
2021/01/01 07:20:50;;;;;;;13.43;8.00;;;19.50;99.90;;;;;;4955228;29;20071;-63
2021/01/01 07:23:18;;;;;;;9.65;8.77;;;19.40;99.90;;;;;;4939356;29;20046;-63
2021/01/01 07:25:46;;;;;;;9.43;8.48;;;19.30;99.90;;;;;;4974359;28;20042;-63
2021/01/01 07:28:16;;;;;;;9.38;8.63;;;19.20;99.90;;;;;;4974265;28;20042;-63
2021/01/01 07:30:44;;;;;;;9.75;8.60;;;19.10;99.90;;;;;;4974491;28;20039;-63
2021/01/01 07:33:19;;;;;;;9.70;8.50;;;19.00;99.90;;;;;;4974271;28;20061;-63
2021/01/01 07:36:07;;;;;;;10.55;9.50;;;18.90;99.90;;;;;;4974363;28;20436;-63
2021/01/01 07:38:37;;;;;;;11.02;8.50;;;18.80;99.90;;;;;;4935725;29;20070;-63
2021/01/01 07:41:07;;;;;;;9.88;8.90;;;18.70;99.90;;;;;;4944329;29;20131;-63
2021/01/01 07:43:35;;;;;;;10.50;8.50;;;18.60;99.90;;;;;;4967688;28;20121;-63
2021/01/01 07:46:07;;;;;;;10.75;9.27;;;18.60;99.90;;;;;;5005455;28;20108;-63
2021/01/01 07:48:35;;;;;;;12.57;9.80;;;18.50;99.90;;;;;;5052832;28;20389;-63
2021/01/01 07:51:07;;;;;;;11.23;9.95;;;18.50;99.90;;;;;;5052562;28;20033;-63
2021/01/01 07:53:37;;;;;;;11.75;10.30;;;18.40;99.90;;;;;;5035555;28;20029;-63
2021/01/01 07:56:07;;;;;;;10.17;9.10;;;18.30;99.90;;;;;;5052596;28;20048;-63
2021/01/01 07:58:35;;;;;;;;;;;18.20;99.90;;;;;;5036786;28;20029;-64
2021/01/01 08:01:07;;;;;;;9.93;8.98;;;18.10;99.90;;;;;;5052477;28;20273;-64
2021/01/01 08:03:37;;;;;;;11.90;7.28;;;18.00;99.90;;;;;;5052464;28;20402;-64
2021/01/01 08:06:09;;;;;;;8.23;6.30;;;18.00;99.90;;;;;;5052406;28;20562;-64
2021/01/01 08:08:38;;;;;;;7.60;6.32;;;18.00;99.90;;;;;;5052487;28;20485;-64
2021/01/01 08:11:07;;;;;;;9.25;5.50;;;17.90;99.90;;;;;;5052183;28;20025;-64
2021/01/01 08:13:36;;;;;;;10.63;9.45;;;17.90;99.90;;;;;;5052293;28;20021;-63
2021/01/01 08:16:23;;;;;;;7.60;4.88;;;17.80;99.90;;;;;;5064497;28;20025;-63
2021/01/01 08:18:51;;;;;;;15.07;5.50;;;17.90;99.90;;;;;;5052138;28;20033;-63
2021/01/01 08:21:19;;;;;;;10.38;9.48;;;17.80;99.90;;;;;;5052117;28;20112;-63
2021/01/01 08:23:58;;;;;;;9.48;2.00;;;17.80;99.90;;;;;;5052045;28;20098;-63
2021/01/01 08:26:28;;;;;;;7.55;1.95;;;17.80;99.90;;;;;;5052289;28;20025;-64
2021/01/01 08:29:00;;;;;;;11.63;1.80;;;17.80;99.90;;;;;;5052038;28;20036;-63
2021/01/01 08:31:29;;;;;;;9.50;2.22;;;17.90;99.90;;;;;;5052061;28;20090;-64
2021/01/01 08:33:57;;;;;;;5.20;1.63;;;17.80;99.90;;;;;;5051817;28;20033;-63
2021/01/01 08:36:33;;;;;;;9.18;2.67;;;17.80;99.90;;;;;;5051696;28;20020;-63
2021/01/01 08:39:11;;;;;;;10.70;2.10;;;17.80;99.90;;;;;;5051823;28;20033;-63
2021/01/01 08:41:48;;;;;;;6.75;1.60;;;17.80;99.90;;;;;;5051731;28;20041;-63
2021/01/01 08:44:17;;;;;;;8.63;1.95;;;17.80;99.90;;;;;;5051590;28;20029;-64
2021/01/01 08:46:46;;;;;;;11.52;2.05;;;17.80;99.90;;;;;;5051662;28;20031;-63
2021/01/01 08:49:20;;;;;;;6.10;0.95;;;17.80;99.90;;;;;;5057420;28;20493;-63
2021/01/01 08:51:49;;;;;;;8.77;1.73;;;17.80;99.90;;;;;;5073614;28;20040;-63
2021/01/01 08:54:27;;;;;;;4.72;0.90;;;17.80;99.90;;;;;;5073605;28;20388;-63
2021/01/01 08:56:59;;;;;;;4.47;1.08;;;17.70;99.90;;;;;;5073600;28;20019;-63
2021/01/01 08:59:29;;;;;;;10.23;1.40;;;17.70;99.90;;;;;;5072220;28;20021;-63
2021/01/01 09:01:59;;;;;;;8.30;2.50;;;17.70;99.90;;;;;;5073450;28;20425;-63
2021/01/01 09:04:29;;;;;;;6.47;1.35;;;17.70;99.90;;;;;;5072803;28;20025;-64
2021/01/01 09:07:03;;;;;;;6.82;1.58;;;17.70;99.90;;;;;;5073503;28;20074;-63
2021/01/01 09:09:33;;;;;;;9.35;1.88;;;17.70;99.90;;;;;;5073271;28;20381;-63
2021/01/01 09:12:21;;;;;;;7.18;2.28;;;17.60;99.90;;;;;;5073392;28;20029;-64
2021/01/01 09:14:54;;;;;;;6.30;1.50;;;17.50;99.90;;;;;;5051024;28;20485;-63
2021/01/01 09:17:26;;;;;;;5.20;1.55;;;17.50;99.90;;;;;;5034467;28;20029;-64
2021/01/01 09:20:09;;;;;;;11.65;1.73;;;17.40;99.90;;;;;;5051036;28;20052;-63
2021/01/01 09:22:41;;;;;;;12.90;2.22;;;17.30;99.90;;;;;;5051203;28;20037;-63
2021/01/01 09:25:29;;;;;;;8.45;1.83;;;17.30;99.90;;;;;;5051082;28;20064;-63
2021/01/01 09:27:58;;;;;;;6.25;1.40;;;17.30;99.90;;;;;;5031351;28;20037;-64
2021/01/01 09:30:29;;;;;;;9.27;2.13;;;17.20;99.90;;;;;;5030962;28;20333;-64
2021/01/01 09:33:00;;;;;;;7.90;1.77;;;17.20;99.90;;;;;;5031219;28;20521;-64
2021/01/01 09:35:30;;;;;;;8.98;4.85;;;17.20;99.90;;;;;;5031054;28;20088;-64
2021/01/01 09:38:03;;;;;;;8.73;2.40;;;17.20;99.90;;;;;;5031109;28;20037;-64
2021/01/01 09:40:34;;;;;;;10.02;2.92;;;17.20;99.90;;;;;;5030918;28;20037;-64
2021/01/01 09:43:06;;;;;;;8.05;1.67;;;17.20;99.90;;;;;;5031033;28;20052;-64
2021/01/01 09:45:36;;;;;;;6.30;1.70;;;17.20;99.90;;;;;;5039481;28;20048;-64
2021/01/01 09:48:05;;;;;;;8.50;2.72;;;17.20;99.90;;;;;;5050863;28;20044;-64
2021/01/01 09:50:34;;;;;;;7.38;1.42;;;17.20;99.90;;;;;;5050520;28;20057;-64
2021/01/01 09:53:02;;;;;;;9.35;2.30;;;17.10;99.90;;;;;;5050823;28;20541;-64
2021/01/01 09:55:30;;;;;;;7.65;1.52;;;17.20;99.90;;;;;;5050807;28;20029;-64
2021/01/01 09:57:59;;;;;;;13.90;2.10;;;17.20;99.90;;;;;;5053616;28;20036;-64
2021/01/01 10:00:27;;;;;;;7.97;1.83;;;17.10;99.90;;;;;;5072807;28;20029;-64
2021/01/01 10:02:55;;;;;;;5.22;1.80;;;17.20;99.90;;;;;;5072831;28;20048;-64
2021/01/01 10:05:24;;;;;;;9.95;2.38;;;17.20;99.90;;;;;;5072875;28;20393;-64
2021/01/01 10:07:53;;;;;;;6.05;1.65;;;17.20;99.90;;;;;;5072791;28;20033;-64
2021/01/01 10:10:21;;;;;;;6.32;3.88;;;17.20;99.90;;;;;;5072492;28;20064;-64
2021/01/01 10:12:49;;;;;;;6.10;1.83;;;17.20;99.90;;;;;;5072768;28;20024;-64
2021/01/01 10:15:17;;;;;;;7.70;1.92;;;17.20;99.90;;;;;;5072896;28;20021;-64
2021/01/01 10:17:45;;;;;;;8.38;2.00;;;17.30;99.90;;;;;;5076518;28;20021;-64
2021/01/01 10:20:14;;;;;;;6.35;1.48;;;17.20;99.90;;;;;;5075190;28;20024;-64
2021/01/01 10:22:42;;;;;;;4.70;1.00;;;17.20;99.90;;;;;;5076683;28;20037;-64
2021/01/01 10:25:11;;;;;;;9.00;1.70;;;17.20;99.90;;;;;;5076330;28;20021;-64
2021/01/01 10:27:39;;;;;;;9.45;2.42;;;17.20;99.90;;;;;;5076625;28;20063;-64
2021/01/01 10:30:08;;;;;;;8.82;3.08;;;17.20;99.90;;;;;;5074567;28;20071;-64
2021/01/01 10:32:36;;;;;;;6.72;2.15;;;17.20;99.90;;;;;;5076439;28;20016;-64
2021/01/01 10:35:04;;;;;;;7.75;1.98;;;17.20;99.90;;;;;;5076255;28;20070;-64
2021/01/01 10:37:33;;;;;;;7.20;2.80;;;17.20;99.90;;;;;;5076260;28;20021;-64
2021/01/01 10:40:02;;;;;;;7.75;1.10;;;17.20;99.90;;;;;;5076215;28;20086;-64
2021/01/01 10:42:30;;;;;;;11.32;1.65;;;17.20;99.90;;;;;;5076091;28;20078;-64
2021/01/01 10:44:58;;;;;;;7.20;1.50;;;17.20;99.90;;;;;;5076375;28;20020;-64
2021/01/01 10:47:26;;;;;;;8.88;2.40;;;17.20;99.90;;;;;;5074944;28;20437;-64
2021/01/01 10:49:54;;;;;;;8.82;1.63;;;17.20;99.90;;;;;;5075838;28;20040;-64
2021/01/01 10:52:22;;;;;;;9.45;2.17;;;17.10;99.90;;;;;;5076007;28;20421;-64
2021/01/01 10:54:50;;;;;;;7.45;2.45;;;17.20;99.90;;;;;;5074681;28;20028;-63
2021/01/01 10:57:19;;;;;;;10.40;2.17;;;17.20;99.90;;;;;;5076131;28;20025;-63
2021/01/01 10:59:47;;;;;;;8.82;2.35;;;17.20;99.90;;;;;;5076298;28;20397;-63
2021/01/01 11:02:15;;;;;;;8.30;2.08;;;17.20;99.90;;;;;;5075865;28;20027;-63
2021/01/01 11:04:43;;;;;;;6.20;1.58;;;17.20;99.90;;;;;;5075790;28;20524;-64
2021/01/01 11:07:11;;;;;;;11.63;1.90;;;17.20;99.90;;;;;;5075980;28;20024;-63
2021/01/01 11:09:39;;;;;;;10.40;2.42;;;17.10;99.90;;;;;;5075830;28;20116;-63
2021/01/01 11:12:08;;;;;;;7.75;2.00;;;17.10;99.90;;;;;;5075722;28;20021;-63
2021/01/01 12:22:13;;;;;;;4.15;1.90;;;17.00;99.90;;;;;;4855560;29;20132;-63
2021/01/01 12:24:47;;;;;;;6.03;2.28;;;17.00;99.90;;;;;;4859798;29;20082;-63
2021/01/01 12:27:19;;;;;;;12.23;2.53;;;16.90;99.90;;;;;;4867130;29;20523;-63
2021/01/01 12:29:48;;;;;;;4.97;1.88;;;16.90;99.90;;;;;;4873024;29;20033;-63
2021/01/01 12:32:17;;;;;;;5.80;1.33;;;17.00;99.90;;;;;;4862809;29;20082;-63
2021/01/01 12:34:45;;;;;;;6.90;1.52;;;17.00;99.90;;;;;;4879454;29;20108;-63
2021/01/01 12:37:18;;;;;;;5.05;1.88;;;16.90;99.90;;;;;;4915730;29;20044;-63
2021/01/01 12:39:46;;;;;;;9.13;7.53;;;16.90;99.90;;;;;;4916935;29;20536;-63
2021/01/01 12:42:13;;;;;;;7.05;1.70;;;17.00;99.90;;;;;;4966165;28;20042;-63
2021/01/01 12:44:41;;;;;;;5.65;1.30;;;17.00;99.90;;;;;;4973100;28;20038;-63
2021/01/01 12:47:10;;;;;;;6.97;1.75;;;17.00;99.90;;;;;;4994728;28;20453;-63
2021/01/01 12:49:37;;;;;;;6.57;1.77;;;17.00;99.90;;;;;;5018843;28;20073;-63
2021/01/01 12:52:05;;;;;;;7.63;2.60;;;17.00;99.90;;;;;;5036906;28;20101;-64
2021/01/01 12:54:33;;;;;;;9.38;1.95;;;17.10;99.90;;;;;;5073663;28;20094;-63
2021/01/01 12:57:01;;;;;;;8.00;1.85;;;17.00;99.90;;;;;;5073725;28;20012;-64
2021/01/01 12:59:29;;;;;;;10.20;6.95;;;17.00;99.90;;;;;;5073940;28;20025;-64
2021/01/01 13:01:57;;;;;;;6.10;1.45;;;17.00;99.90;;;;;;5073849;28;20108;-63
2021/01/01 13:04:24;;;;;;;5.63;1.23;;;17.00;99.90;;;;;;5073535;28;20046;-63
2021/01/01 13:06:53;;;;;;;6.57;1.63;;;16.90;99.90;;;;;;5073715;28;20020;-63
2021/01/01 13:09:22;;;;;;;8.32;1.25;;;16.90;99.90;;;;;;5073665;28;20042;-64
2021/01/01 13:11:49;;;;;;;8.10;1.33;;;16.90;99.90;;;;;;5073416;28;20028;-64
2021/01/01 13:14:17;;;;;;;9.35;1.85;;;16.90;99.90;;;;;;5073695;28;20146;-63
2021/01/01 13:16:46;;;;;;;6.28;1.52;;;16.80;99.90;;;;;;5073379;28;20457;-63
2021/01/01 13:19:14;;;;;;;10.38;1.77;;;16.80;99.90;;;;;;5073385;28;20381;-63
2021/01/01 13:21:42;;;;;;;7.72;1.73;;;16.80;99.90;;;;;;5073313;28;20016;-63
2021/01/01 13:24:10;;;;;;;10.20;1.40;;;16.80;99.90;;;;;;5073295;28;20397;-64
2021/01/01 13:26:38;;;;;;;11.32;1.73;;;16.90;99.90;;;;;;5073189;28;20090;-63
2021/01/01 13:29:06;;;;;;;7.10;1.13;;;16.90;99.90;;;;;;5073195;28;20535;-64
2021/01/01 13:31:36;;;;;;;11.52;1.90;;;16.90;99.90;;;;;;5073092;28;20025;-64
2021/01/01 13:34:06;;;;;;;10.23;2.50;;;16.90;99.90;;;;;;5073536;28;20128;-64
2021/01/01 13:36:34;;;;;;;6.40;1.50;;;16.80;99.90;;;;;;5073444;28;20090;-64
2021/01/01 13:39:03;;;;;;;6.28;1.50;;;16.80;99.90;;;;;;5073086;28;20055;-64
2021/01/01 13:41:31;;;;;;;6.90;1.13;;;16.80;99.90;;;;;;5054931;28;20036;-64
2021/01/01 13:43:59;;;;;;;9.13;1.55;;;16.80;99.90;;;;;;5073092;28;20384;-63
2021/01/01 13:46:33;;;;;;;6.75;1.35;;;16.80;99.90;;;;;;5073058;28;20027;-63
2021/01/01 13:49:01;;;;;;;6.13;1.15;;;16.80;99.90;;;;;;5072875;28;20036;-63
2021/01/01 13:51:34;;;;;;;6.13;1.10;;;16.80;99.90;;;;;;5075436;28;20044;-63
2021/01/01 13:54:03;;;;;;;5.95;1.25;;;16.90;99.90;;;;;;5077148;28;20017;-63
2021/01/01 13:56:31;;;;;;;5.72;1.58;;;16.80;99.90;;;;;;5077077;28;20025;-64
2021/01/01 13:58:59;;;;;;;5.80;1.27;;;16.80;99.90;;;;;;5077107;28;20045;-64
2021/01/01 14:01:27;;;;;;;5.38;1.25;;;16.80;99.90;;;;;;5075969;28;20016;-64
2021/01/01 14:03:55;;;;;;;8.02;1.40;;;16.70;99.90;;;;;;5075118;28;20073;-64
2021/01/01 14:06:32;;;;;;;7.25;1.55;;;16.70;99.90;;;;;;5077157;28;20392;-64
2021/01/01 14:09:01;;;;;;;10.38;1.95;;;16.60;99.90;;;;;;5076935;28;20024;-64